Time;durP1;ratioP1;P1;durP2;ratioP2;P2;SDS_P1;SDS_P2;PMS_P1;PMS_P2;Temp;Humidity;BMP_temperature;BMP_pressure;BME280_temperature;BME280_humidity;BME280_pressure;Samples;Min_cycle;Max_cycle;Signal;HPM_P1;HPM_P2
2022/11/01 00:02:11;;;;;;;23.80;12.60;;;;;;;8.94;70.21;99387.55;103048;1298;99272;-69
2022/11/01 00:04:39;;;;;;;25.10;12.80;;;;;;;8.91;70.33;99385.04;103064;1303;107423;-68
2022/11/01 00:07:07;;;;;;;25.70;12.80;;;;;;;8.88;70.36;99383.79;103017;1282;99419;-69
2022/11/01 00:09:35;;;;;;;26.50;13.00;;;;;;;8.86;70.42;99380.38;103029;1304;99251;-69
2022/11/01 00:12:03;;;;;;;29.40;13.30;;;;;;;8.86;70.40;99378.11;103218;1297;113133;-68
2022/11/01 00:14:31;;;;;;;26.10;13.20;;;;;;;8.85;70.59;99373.92;103238;1300;96540;-70
2022/11/01 00:16:59;;;;;;;28.90;12.10;;;;;;;8.85;70.51;99374.08;103196;1295;108133;-68
2022/11/01 00:19:27;;;;;;;24.80;13.10;;;;;;;8.85;70.70;99367.02;103061;1296;99208;-69
2022/11/01 00:21:55;;;;;;;24.90;12.70;;;;;;;8.86;70.71;99365.39;103124;1294;99171;-69
2022/11/01 00:24:23;;;;;;;24.90;12.50;;;;;;;8.86;70.60;99360.27;102989;1303;113126;-68
2022/11/01 00:26:51;;;;;;;26.50;12.20;;;;;;;8.82;70.55;99357.98;103040;1301;99246;-69
2022/11/01 00:29:19;;;;;;;26.20;12.70;;;;;;;8.76;70.49;99355.87;103007;1304;108047;-69
2022/11/01 00:31:47;;;;;;;26.60;11.50;;;;;;;8.71;70.82;99354.95;103012;1303;99116;-69
2022/11/01 00:34:16;;;;;;;27.30;12.00;;;;;;;8.68;70.62;99352.14;103167;1301;99255;-69
2022/11/01 00:36:44;;;;;;;27.30;13.10;;;;;;;8.66;71.02;99353.14;103199;1294;112281;-69
2022/11/01 00:39:15;;;;;;;24.40;12.10;;;;;;;8.62;70.96;99353.00;103109;1297;99908;-69
2022/11/01 00:41:42;;;;;;;25.60;12.10;;;;;;;8.60;70.88;99352.97;103103;1294;107283;-69
2022/11/01 00:44:10;;;;;;;23.20;11.50;;;;;;;8.59;71.00;99351.58;103076;1302;99344;-69
2022/11/01 00:46:38;;;;;;;25.80;11.70;;;;;;;8.61;71.09;99347.21;103092;1294;99390;-70
2022/11/01 00:49:06;;;;;;;21.90;10.80;;;;;;;8.62;71.06;99343.48;103140;1300;111169;-69
2022/11/01 00:51:34;;;;;;;23.90;12.70;;;;;;;8.63;71.02;99342.86;103186;1300;97656;-69
2022/11/01 00:54:02;;;;;;;25.20;11.60;;;;;;;8.64;71.16;99344.77;103155;1297;108043;-70
2022/11/01 00:56:30;;;;;;;25.80;11.60;;;;;;;8.65;71.24;99338.69;103104;1297;99335;-69
2022/11/01 00:58:58;;;;;;;28.70;11.50;;;;;;;8.67;71.18;99338.79;103101;1298;99272;-69
2022/11/01 01:01:25;;;;;;;25.70;11.50;;;;;;;8.68;71.28;99334.46;103088;1295;112932;-69
2022/11/01 01:03:54;;;;;;;23.30;10.80;;;;;;;8.68;71.18;99333.38;103136;1302;99303;-68
2022/11/01 01:06:22;;;;;;;22.40;10.70;;;;;;;8.66;71.26;99334.75;103114;1295;107916;-68
2022/11/01 01:08:50;;;;;;;23.30;10.10;;;;;;;8.63;71.25;99333.12;103076;1303;99361;-69
2022/11/01 01:11:17;;;;;;;24.10;10.10;;;;;;;8.62;71.27;99328.10;103112;1304;99239;-69
2022/11/01 01:13:45;;;;;;;20.80;10.30;;;;;;;8.58;71.09;99325.13;103155;1295;113231;-69
2022/11/01 01:16:13;;;;;;;21.60;9.80;;;;;;;8.52;71.16;99322.48;103064;1294;99255;-70
2022/11/01 01:18:41;;;;;;;23.00;11.00;;;;;;;8.48;71.26;99325.88;103066;1296;107998;-70
2022/11/01 01:21:09;;;;;;;21.40;10.30;;;;;;;8.46;71.24;99321.92;103051;1304;99990;-70
2022/11/01 01:23:37;;;;;;;23.30;10.50;;;;;;;8.45;71.27;99321.81;103070;1303;96660;-69
2022/11/01 01:26:07;;;;;;;20.80;10.20;;;;;;;8.42;71.45;99322.16;103059;1297;113004;-69
2022/11/01 01:28:36;;;;;;;24.70;10.60;;;;;;;8.40;71.50;99317.14;103074;1303;96592;-69
2022/11/01 01:31:12;;;;;;;28.00;10.80;;;;;;;8.39;71.47;99312.11;103097;1296;108096;-68
2022/11/01 01:33:40;;;;;;;24.00;11.70;;;;;;;8.37;71.70;99311.86;103045;1306;99351;-68
2022/11/01 01:36:09;;;;;;;23.90;10.70;;;;;;;8.38;71.54;99308.83;103089;1295;99253;-69
2022/11/01 01:38:37;;;;;;;24.20;10.40;;;;;;;8.39;71.73;99303.13;103047;1295;113136;-70
2022/11/01 01:43:59;;;;;;;22.60;9.30;;;;;;;8.42;71.80;99294.77;102873;1308;107714;-72
2022/11/01 01:46:27;;;;;;;20.90;10.20;;;;;;;8.42;71.73;99293.19;103031;1301;99348;-70
2022/11/01 01:48:58;;;;;;;23.60;10.80;;;;;;;8.42;71.65;99292.46;103049;1295;99227;-70
2022/11/01 01:51:27;;;;;;;21.80;8.90;;;;;;;8.40;71.64;99285.89;103073;1304;112535;-73
2022/11/01 01:53:57;;;;;;;19.70;9.20;;;;;;;8.37;71.73;99283.24;103037;1303;99259;-71
2022/11/01 01:56:31;;;;;;;21.00;9.00;;;;;;;8.36;71.92;99285.21;103005;1289;108112;-70
2022/11/01 01:59:17;;;;;;;19.90;9.00;;;;;;;8.38;71.82;99283.02;103031;1296;96485;-71
2022/11/01 02:01:45;;;;;;;20.20;9.10;;;;;;;8.39;71.85;99280.14;103139;1296;99325;-69
2022/11/01 02:04:38;;;;;;;20.10;8.30;;;;;;;8.39;71.96;99276.91;103169;1297;113555;-69
2022/11/01 02:07:07;;;;;;;22.30;8.70;;;;;;;8.40;72.01;99270.18;103146;1303;96508;-71
2022/11/01 02:09:36;;;;;;;20.80;8.30;;;;;;;8.39;71.97;99266.66;103141;1303;106132;-70
2022/11/01 02:12:04;;;;;;;20.40;8.90;;;;;;;8.40;71.98;99267.00;103145;1299;99340;-70
2022/11/01 02:14:32;;;;;;;19.20;8.80;;;;;;;8.38;71.84;99260.02;103148;1304;96983;-71
2022/11/01 02:17:27;;;;;;;19.90;9.10;;;;;;;8.38;71.95;99259.00;103139;1304;112418;-72
2022/11/01 02:20:03;;;;;;;20.00;8.30;;;;;;;8.37;72.19;99254.80;103127;1304;99331;-70
2022/11/01 02:23:02;;;;;;;18.70;8.10;;;;;;;8.37;72.10;99256.54;103131;1301;107633;-71
2022/11/01 02:25:52;;;;;;;20.60;8.70;;;;;;;8.34;72.10;99254.95;103111;1303;96995;-70
2022/11/01 02:28:37;;;;;;;19.80;7.80;;;;;;;8.31;72.15;99255.14;103164;1294;99440;-71
2022/11/01 02:31:34;;;;;;;17.80;8.00;;;;;;;8.33;72.27;99257.35;103121;1298;112424;-73
2022/11/01 02:34:15;;;;;;;17.80;8.50;;;;;;;8.34;72.31;99257.80;103133;1290;97933;-68
2022/11/01 02:36:47;;;;;;;19.00;8.00;;;;;;;8.35;72.26;99257.89;103150;1304;108084;-69
2022/11/01 02:39:22;;;;;;;20.70;8.20;;;;;;;8.35;72.30;99259.86;103135;1295;99803;-68
2022/11/01 02:41:57;;;;;;;17.60;7.90;;;;;;;8.34;72.23;99258.65;103086;1301;99116;-69
2022/11/01 02:44:30;;;;;;;18.70;8.10;;;;;;;8.33;72.25;99255.53;103152;1303;112057;-68
2022/11/01 02:47:01;;;;;;;19.30;7.90;;;;;;;8.32;72.25;99254.02;103155;1297;99276;-67
2022/11/01 02:49:33;;;;;;;17.80;7.80;;;;;;;8.28;72.30;99254.59;103133;1288;108079;-68
2022/11/01 02:52:03;;;;;;;16.60;7.30;;;;;;;8.26;72.41;99255.48;103121;1301;99340;-68
2022/11/01 02:54:41;;;;;;;18.80;7.70;;;;;;;8.23;72.54;99259.16;103193;1301;99246;-67
2022/11/01 02:57:31;;;;;;;17.50;7.50;;;;;;;8.24;72.63;99260.00;103120;1298;113030;-70
2022/11/01 03:00:15;;;;;;;16.30;7.10;;;;;;;8.24;72.55;99262.61;103138;1297;96904;-68
2022/11/01 03:02:44;;;;;;;17.50;6.90;;;;;;;8.25;72.47;99266.11;103127;1297;107852;-68
2022/11/01 03:05:24;;;;;;;16.90;7.50;;;;;;;8.26;72.55;99271.02;103137;1298;96555;-67
2022/11/01 03:07:59;;;;;;;16.70;7.10;;;;;;;8.28;72.55;99272.13;103200;1304;99289;-69
2022/11/01 03:10:41;;;;;;;17.00;7.00;;;;;;;8.28;72.78;99269.46;103152;1291;111536;-68
2022/11/01 03:13:31;;;;;;;15.50;6.50;;;;;;;8.29;72.67;99269.55;103155;1289;99334;-68
2022/11/01 03:16:29;;;;;;;16.60;7.30;;;;;;;8.29;72.67;99262.36;103133;1303;107395;-68
2022/11/01 03:19:12;;;;;;;17.60;7.10;;;;;;;8.29;72.77;99264.45;103053;1297;96457;-68
2022/11/01 03:21:49;;;;;;;17.80;7.80;;;;;;;8.30;72.74;99261.95;103118;1304;99539;-68
2022/11/01 03:24:32;;;;;;;17.30;7.40;;;;;;;8.31;72.75;99256.20;103133;1297;113019;-68
2022/11/01 03:27:06;;;;;;;24.20;9.30;;;;;;;8.30;72.63;99255.05;103114;1303;99335;-68
2022/11/01 03:29:37;;;;;;;16.30;7.50;;;;;;;8.23;72.55;99252.08;103159;1296;107584;-69
2022/11/01 03:32:06;;;;;;;15.90;6.90;;;;;;;8.14;72.48;99245.04;103140;1295;99103;-70
2022/11/01 03:34:37;;;;;;;18.10;7.50;;;;;;;8.08;72.90;99241.52;103149;1304;99204;-69
2022/11/01 03:37:10;;;;;;;17.00;7.20;;;;;;;8.06;72.79;99230.83;103131;1304;112496;-68
2022/11/01 03:39:47;;;;;;;21.50;7.50;;;;;;;8.05;72.96;99230.36;103151;1298;99281;-70
2022/11/01 03:42:19;;;;;;;21.00;8.50;;;;;;;8.05;73.01;99232.13;103135;1296;107210;-71
2022/11/01 03:44:51;;;;;;;16.00;7.00;;;;;;;8.05;73.01;99232.65;103167;1297;96562;-68
2022/11/01 03:47:19;;;;;;;17.60;7.70;;;;;;;8.03;72.94;99229.98;103145;1296;99209;-69
2022/11/01 03:50:15;;;;;;;17.50;7.80;;;;;;;7.98;72.77;99225.82;103128;1298;113245;-69
2022/11/01 03:52:44;;;;;;;18.40;7.20;;;;;;;7.97;73.23;99221.65;103158;1298;99277;-68
2022/11/01 03:55:17;;;;;;;16.40;7.00;;;;;;;7.96;73.30;99221.39;103277;1300;107379;-70
2022/11/01 03:57:48;;;;;;;18.50;8.00;;;;;;;7.91;73.12;99225.91;103165;1303;99220;-68
2022/11/01 04:00:22;;;;;;;19.20;7.70;;;;;;;7.87;73.25;99227.70;103102;1303;101150;-69
2022/11/01 04:02:52;;;;;;;18.10;7.00;;;;;;;7.88;73.22;99230.29;103129;1293;112592;-69
2022/11/01 04:05:21;;;;;;;17.20;6.80;;;;;;;7.90;73.23;99224.70;103131;1301;99239;-70
2022/11/01 04:07:50;;;;;;;16.20;7.30;;;;;;;7.91;73.04;99226.08;103143;1297;108378;-69
2022/11/01 04:10:19;;;;;;;15.60;6.50;;;;;;;7.89;73.26;99221.61;103177;1304;96647;-71
2022/11/01 04:12:49;;;;;;;15.70;6.40;;;;;;;7.87;73.35;99221.69;103164;1298;99241;-72
2022/11/01 04:21:18;;;;;;;14.10;6.60;;;;;;;7.94;73.50;99211.64;103090;1297;110260;-69
2022/11/01 04:23:46;;;;;;;17.90;7.00;;;;;;;7.96;73.45;99206.55;103059;1296;98313;-69
2022/11/01 04:26:20;;;;;;;18.50;6.70;;;;;;;7.98;73.44;99212.42;103114;1304;99303;-69
2022/11/01 04:28:58;;;;;;;18.30;7.00;;;;;;;7.99;73.41;99214.10;103086;1297;113110;-69
2022/11/01 04:31:32;;;;;;;15.50;6.60;;;;;;;8.00;73.44;99211.96;103118;1298;99320;-69
2022/11/01 04:34:02;;;;;;;18.50;7.60;;;;;;;7.97;73.17;99213.91;103182;1298;107623;-69
2022/11/01 04:36:31;;;;;;;16.90;6.50;;;;;;;7.91;73.17;99209.14;103084;1303;98320;-71
2022/11/01 04:38:59;;;;;;;16.80;6.80;;;;;;;7.85;73.34;99201.73;103133;1297;99255;-72
2022/11/01 04:41:29;;;;;;;18.10;7.40;;;;;;;7.78;73.43;99199.48;103107;1303;113083;-69
2022/11/01 04:43:58;;;;;;;19.80;7.40;;;;;;;7.73;73.60;99205.09;103052;1304;128043;-69
2022/11/01 04:46:30;;;;;;;16.20;7.10;;;;;;;7.68;73.43;99205.86;103155;1296;107212;-69
2022/11/01 04:48:58;;;;;;;16.00;6.50;;;;;;;7.65;73.47;99203.04;103152;1298;99304;-68
2022/11/01 04:51:26;;;;;;;14.80;6.40;;;;;;;7.62;73.82;99195.64;103145;1301;99439;-69
2022/11/01 04:53:55;;;;;;;16.90;6.70;;;;;;;7.60;73.73;99190.96;103163;1288;112093;-69
2022/11/01 04:56:23;;;;;;;18.50;7.40;;;;;;;7.59;73.78;99193.68;103305;1295;96538;-69
2022/11/01 04:58:51;;;;;;;18.60;8.10;;;;;;;7.59;73.84;99192.98;103131;1303;107418;-67
2022/11/01 05:01:18;;;;;;;18.40;6.90;;;;;;;7.59;73.73;99192.24;103137;1304;99411;-68
2022/11/01 05:03:48;;;;;;;16.30;7.20;;;;;;;7.61;73.91;99193.92;103127;1297;99250;-71
2022/11/01 05:06:16;;;;;;;16.90;6.80;;;;;;;7.64;73.91;99192.88;103112;1304;112485;-68
2022/11/01 05:08:44;;;;;;;17.50;6.80;;;;;;;7.66;73.86;99192.98;103117;1297;96488;-69
2022/11/01 05:11:12;;;;;;;16.90;6.70;;;;;;;7.66;73.95;99186.36;103020;1303;106939;-70
2022/11/01 05:13:40;;;;;;;17.10;7.50;;;;;;;7.68;74.10;99184.14;103120;1304;99332;-69
2022/11/01 05:16:08;;;;;;;16.20;6.70;;;;;;;7.69;74.00;99182.15;103128;1300;99246;-68
2022/11/01 05:18:51;;;;;;;16.60;6.90;;;;;;;7.71;74.06;99179.95;103100;1297;113175;-68
2022/11/01 05:21:19;;;;;;;13.40;6.10;;;;;;;7.71;74.15;99175.85;103054;1296;97991;-69
2022/11/01 05:23:48;;;;;;;15.70;6.30;;;;;;;7.73;74.21;99175.93;103005;1298;108005;-68
2022/11/01 05:26:16;;;;;;;15.90;6.40;;;;;;;7.76;74.12;99174.87;103010;1292;97816;-69
2022/11/01 05:28:44;;;;;;;13.70;6.10;;;;;;;7.80;74.17;99178.35;103000;1297;99311;-69
2022/11/01 05:31:12;;;;;;;16.30;7.00;;;;;;;7.85;74.35;99177.34;102974;1304;113070;-69
2022/11/01 05:33:39;;;;;;;15.60;6.60;;;;;;;7.90;74.35;99177.75;102961;1303;99239;-69
2022/11/01 05:36:07;;;;;;;15.80;6.80;;;;;;;7.96;74.27;99168.92;102938;1303;107080;-69
2022/11/01 05:38:35;;;;;;;14.90;6.50;;;;;;;8.00;74.25;99165.31;103015;1304;99307;-68
2022/11/01 05:41:03;;;;;;;18.00;7.10;;;;;;;8.03;74.23;99169.33;103074;1297;99249;-69
2022/11/01 05:43:31;;;;;;;17.50;6.50;;;;;;;8.06;74.08;99169.57;103032;1304;112332;-69
2022/11/01 05:46:03;;;;;;;16.40;6.30;;;;;;;8.09;74.25;99169.39;102994;1304;99359;-68
2022/11/01 05:48:32;;;;;;;17.70;6.60;;;;;;;8.14;74.25;99166.41;103028;1291;107490;-68
2022/11/01 05:50:59;;;;;;;14.20;6.30;;;;;;;8.20;74.36;99167.30;103053;1297;99326;-68
2022/11/01 05:53:27;;;;;;;14.10;6.00;;;;;;;8.25;74.21;99166.15;103075;1290;99244;-67
2022/11/01 05:55:55;;;;;;;17.80;5.90;;;;;;;8.28;74.40;99160.64;102990;1298;112016;-69
2022/11/01 05:58:24;;;;;;;14.30;5.70;;;;;;;8.33;74.46;99161.75;103065;1297;99324;-69
2022/11/01 06:01:04;;;;;;;15.70;6.50;;;;;;;8.38;74.46;99157.20;102998;1296;107379;-69
2022/11/01 06:03:34;;;;;;;12.00;5.30;;;;;;;8.41;74.40;99155.59;103049;1296;99801;-69
2022/11/01 06:06:02;;;;;;;12.20;4.70;;;;;;;8.44;74.60;99159.98;103002;1301;99288;-69
2022/11/01 06:08:31;;;;;;;10.10;4.30;;;;;;;8.48;74.72;99151.84;103048;1297;112487;-69
2022/11/01 06:11:02;;;;;;;14.20;5.30;;;;;;;8.52;74.59;99157.80;103023;1303;99242;-68
2022/11/01 06:13:31;;;;;;;13.10;5.10;;;;;;;8.57;74.58;99156.41;103067;1304;107865;-68
2022/11/01 06:16:04;;;;;;;11.30;4.30;;;;;;;8.62;74.67;99156.59;103067;1307;99422;-68
2022/11/01 06:18:32;;;;;;;13.40;5.10;;;;;;;8.68;74.70;99159.11;103049;1298;99124;-69
2022/11/01 06:21:00;;;;;;;13.00;4.80;;;;;;;8.72;74.82;99152.96;103053;1301;113045;-72
2022/11/01 06:23:28;;;;;;;12.60;5.30;;;;;;;8.77;74.89;99158.30;103124;1304;99343;-71
2022/11/01 06:26:04;;;;;;;11.30;4.00;;;;;;;8.81;74.93;99156.14;103172;1301;108067;-72
2022/11/01 06:28:32;;;;;;;13.60;4.80;;;;;;;8.85;75.04;99153.02;103201;1295;99223;-72
2022/11/01 06:31:01;;;;;;;11.50;4.40;;;;;;;8.89;75.07;99151.71;103052;1304;99300;-69
2022/11/01 06:33:30;;;;;;;10.90;4.40;;;;;;;8.94;75.12;99147.89;103070;1304;112430;-70
2022/11/01 06:36:00;;;;;;;13.10;4.30;;;;;;;8.98;75.09;99147.98;103030;1304;99068;-69
2022/11/01 06:38:28;;;;;;;13.40;4.50;;;;;;;9.02;75.42;99140.26;103039;1304;107201;-70
2022/11/01 06:40:56;;;;;;;12.70;4.50;;;;;;;9.08;75.24;99140.44;103137;1304;100938;-68
2022/11/01 06:43:24;;;;;;;14.40;4.20;;;;;;;9.12;75.38;99137.52;103147;1297;100343;-68
2022/11/01 06:45:52;;;;;;;10.30;4.40;;;;;;;9.19;75.35;99142.21;103165;1296;113102;-71
2022/11/01 06:48:20;;;;;;;10.10;4.40;;;;;;;9.25;75.32;99141.42;103242;1297;96521;-69
2022/11/01 06:50:48;;;;;;;10.80;4.50;;;;;;;9.32;75.31;99145.73;103072;1297;107316;-69
2022/11/01 06:53:16;;;;;;;11.70;4.80;;;;;;;9.39;75.30;99147.79;103003;1303;97273;-69
2022/11/01 06:55:44;;;;;;;13.00;4.50;;;;;;;9.46;75.33;99143.45;103015;1298;99219;-70
2022/11/01 06:58:11;;;;;;;12.10;4.60;;;;;;;9.53;75.38;99141.16;103058;1304;112145;-70
2022/11/01 07:00:39;;;;;;;10.50;4.60;;;;;;;9.61;75.43;99148.60;103081;1304;99283;-70
2022/11/01 07:03:10;;;;;;;10.20;4.20;;;;;;;9.69;75.46;99150.73;103057;1304;107498;-70
2022/11/01 07:05:39;;;;;;;13.60;5.00;;;;;;;9.77;75.73;99147.76;103103;1305;99310;-70
2022/11/01 07:08:11;;;;;;;13.10;4.80;;;;;;;9.83;75.52;99143.77;103140;1303;96673;-70
2022/11/01 07:10:41;;;;;;;12.20;4.40;;;;;;;9.91;75.56;99146.42;103145;1303;111212;-70
2022/11/01 07:13:11;;;;;;;13.80;4.40;;;;;;;9.97;75.46;99143.34;103175;1293;99355;-71
2022/11/01 07:15:40;;;;;;;10.00;4.40;;;;;;;10.05;75.50;99144.59;103140;1304;107240;-70
2022/11/01 07:18:08;;;;;;;11.20;5.10;;;;;;;10.12;75.50;99144.45;103074;1304;99219;-70
2022/11/01 07:20:40;;;;;;;13.10;4.70;;;;;;;10.20;75.45;99145.70;103163;1297;99240;-71
2022/11/01 07:23:13;;;;;;;15.50;5.10;;;;;;;10.27;75.60;99149.30;103121;1304;112396;-68
2022/11/01 07:25:41;;;;;;;13.00;4.60;;;;;;;10.35;75.58;99146.45;103121;1299;99305;-70
2022/11/01 07:28:09;;;;;;;13.50;5.00;;;;;;;10.43;75.65;99141.46;103114;1298;108096;-71
2022/11/01 07:30:38;;;;;;;15.70;5.00;;;;;;;10.50;75.63;99140.80;103110;1304;99357;-70
2022/11/01 07:33:06;;;;;;;13.60;5.10;;;;;;;10.58;75.55;99143.74;103154;1304;99435;-70
2022/11/01 07:35:35;;;;;;;14.70;5.50;;;;;;;10.66;75.61;99141.05;103141;1296;113106;-70
2022/11/01 07:38:04;;;;;;;11.90;4.40;;;;;;;10.73;75.70;99138.80;103169;1303;99115;-70
2022/11/01 07:40:39;;;;;;;11.40;4.30;;;;;;;10.81;75.67;99136.99;103090;1304;107647;-70
2022/11/01 07:43:07;;;;;;;11.00;4.30;;;;;;;10.90;75.66;99139.89;103110;1305;99547;-70
2022/11/01 07:45:36;;;;;;;12.50;4.30;;;;;;;10.98;75.67;99129.35;103176;1296;96598;-70
2022/11/01 07:48:09;;;;;;;11.30;4.20;;;;;;;11.06;75.57;99128.40;103145;1299;110945;-70
2022/11/01 07:50:39;;;;;;;16.20;4.60;;;;;;;11.16;75.62;99124.70;103194;1304;99250;-70
2022/11/01 07:53:10;;;;;;;11.50;4.10;;;;;;;11.27;75.65;99124.58;103129;1304;107370;-71
2022/11/01 07:55:39;;;;;;;13.40;4.30;;;;;;;11.40;75.62;99125.38;103126;1301;99224;-68
2022/11/01 07:58:09;;;;;;;10.10;4.00;;;;;;;11.53;75.56;99121.06;103201;1297;99222;-70
2022/11/01 08:00:38;;;;;;;16.30;5.00;;;;;;;11.65;75.66;99119.75;103123;1303;111240;-70
2022/11/01 08:03:18;;;;;;;15.50;4.70;;;;;;;11.77;75.58;99115.51;103169;1303;99137;-70
2022/11/01 08:05:46;;;;;;;10.10;4.10;;;;;;;11.87;75.49;99113.09;103049;1304;106988;-73
2022/11/01 08:08:15;;;;;;;10.10;4.30;;;;;;;11.96;75.57;99109.61;103076;1303;99098;-70
2022/11/01 08:10:44;;;;;;;11.40;4.20;;;;;;;12.04;75.53;99108.45;103148;1297;99210;-70
2022/11/01 08:13:20;;;;;;;10.30;4.50;;;;;;;12.13;75.59;99104.94;103031;1297;112186;-72
2022/11/01 08:15:51;;;;;;;10.70;4.30;;;;;;;12.22;75.52;99107.48;103170;1304;99394;-69
2022/11/01 08:18:21;;;;;;;14.00;5.20;;;;;;;12.31;75.53;99102.64;103145;1297;105627;-70
2022/11/01 08:20:50;;;;;;;14.20;4.70;;;;;;;12.41;75.52;99099.20;103058;1304;99260;-68
2022/11/01 08:23:19;;;;;;;14.70;4.60;;;;;;;12.52;75.53;99099.36;103091;1301;96657;-70
2022/11/01 08:25:48;;;;;;;12.50;4.50;;;;;;;12.66;75.43;99097.20;103039;1303;112400;-69
2022/11/01 08:28:18;;;;;;;10.50;4.30;;;;;;;12.81;75.51;99103.67;102983;1304;99352;-69
2022/11/01 08:30:49;;;;;;;10.30;4.10;;;;;;;12.97;75.55;99103.91;103030;1303;108067;-69
2022/11/01 08:33:17;;;;;;;12.00;3.80;;;;;;;13.17;75.28;99105.68;102973;1295;99605;-72
2022/11/01 08:35:45;;;;;;;13.70;4.40;;;;;;;13.38;75.40;99101.88;104645;1295;96922;-70
2022/11/01 08:38:18;;;;;;;10.30;4.00;;;;;;;13.63;75.32;99101.88;103051;1297;112423;-70
2022/11/01 08:40:46;;;;;;;10.00;3.80;;;;;;;13.88;75.19;99096.79;103060;1297;97689;-70
2022/11/01 08:43:15;;;;;;;8.30;3.50;;;;;;;14.13;74.35;99102.29;103077;1296;107473;-71
2022/11/01 08:45:44;;;;;;;17.30;4.90;;;;;;;14.39;74.73;99097.75;103373;1304;97274;-71
2022/11/01 08:48:13;;;;;;;9.70;3.70;;;;;;;14.63;74.69;99100.79;103130;1304;99214;-70
2022/11/01 08:50:40;;;;;;;8.90;3.50;;;;;;;14.90;74.79;99095.73;103128;1304;112510;-70
2022/11/01 08:53:11;;;;;;;12.00;4.00;;;;;;;15.24;74.73;99093.08;103147;1301;99281;-71
2022/11/01 08:55:40;;;;;;;11.20;3.70;;;;;;;15.56;74.11;99096.75;103219;1295;108262;-71
2022/11/01 08:58:09;;;;;;;8.70;3.10;;;;;;;15.86;74.63;99094.34;103186;1294;99347;-71
2022/11/01 09:00:37;;;;;;;9.80;3.70;;;;;;;16.24;74.68;99091.59;103167;1297;99334;-72
2022/11/01 09:03:04;;;;;;;11.40;3.70;;;;;;;16.51;73.99;99089.05;103144;1294;111441;-68
2022/11/01 09:05:33;;;;;;;9.40;3.70;;;;;;;16.68;73.91;99088.27;103042;1297;99343;-69
2022/11/01 09:08:01;;;;;;;7.20;3.50;;;;;;;16.91;73.41;99082.41;103115;1297;107874;-68
2022/11/01 09:10:30;;;;;;;8.70;3.80;;;;;;;17.27;73.58;99078.98;103126;1297;99247;-68
2022/11/01 09:12:59;;;;;;;8.30;4.00;;;;;;;17.66;73.51;99077.39;103267;1298;99281;-71
2022/11/01 09:15:28;;;;;;;6.00;3.00;;;;;;;18.03;73.02;99075.53;103129;1297;112134;-71
2022/11/01 09:17:56;;;;;;;10.40;3.40;;;;;;;18.30;72.84;99077.42;103087;1297;98442;-71
2022/11/01 09:20:25;;;;;;;9.20;3.10;;;;;;;18.51;72.84;99074.59;103180;1302;108805;-72
2022/11/01 09:22:53;;;;;;;11.70;3.40;;;;;;;18.51;72.55;99072.90;103135;1298;99255;-70
2022/11/01 09:25:21;;;;;;;11.00;3.30;;;;;;;18.48;72.01;99074.87;103141;1297;99229;-70
2022/11/01 09:27:49;;;;;;;10.90;3.60;;;;;;;18.42;72.00;99074.75;103115;1298;112286;-70
2022/11/01 09:30:17;;;;;;;8.30;3.50;;;;;;;18.19;71.62;99076.63;103167;1303;99892;-69
2022/11/01 09:32:45;;;;;;;13.00;4.00;;;;;;;18.03;71.74;99065.34;102999;1289;107372;-69
2022/11/01 09:35:13;;;;;;;8.30;3.30;;;;;;;17.89;71.53;99065.84;103074;1304;99257;-69
2022/11/01 09:37:41;;;;;;;12.10;3.30;;;;;;;17.67;71.32;99065.20;103177;1296;99245;-69
2022/11/01 09:40:13;;;;;;;7.00;3.30;;;;;;;17.47;71.45;99063.88;103118;1297;112484;-69
2022/11/01 09:42:44;;;;;;;7.30;3.30;;;;;;;17.31;71.42;99062.38;103054;1298;99627;-71
2022/11/01 09:45:18;;;;;;;10.70;3.80;;;;;;;17.30;71.34;99061.59;103161;1297;109066;-71
2022/11/01 09:47:51;;;;;;;11.50;3.60;;;;;;;17.26;71.13;99060.42;103129;1303;99195;-69
2022/11/01 09:50:52;;;;;;;12.10;3.70;;;;;;;17.22;71.24;99061.92;103091;1296;99243;-69
2022/11/01 09:53:27;;;;;;;11.00;3.30;;;;;;;17.16;70.33;99064.80;102820;1303;113118;-69
2022/11/01 09:56:09;;;;;;;8.70;3.40;;;;;;;17.14;70.77;99058.23;103156;1296;99232;-70
2022/11/01 09:59:15;;;;;;;7.90;3.50;;;;;;;17.21;70.94;99055.14;103209;1295;107450;-69
2022/11/01 10:01:55;;;;;;;8.60;3.10;;;;;;;17.37;70.54;99054.66;103160;1304;99218;-68
2022/11/01 10:04:49;;;;;;;12.10;3.60;;;;;;;17.47;70.28;99055.96;103077;1290;99226;-68
2022/11/01 10:07:44;;;;;;;14.30;4.10;;;;;;;17.49;69.16;99063.13;103064;1295;113173;-69
2022/11/01 10:10:50;;;;;;;11.70;4.50;;;;;;;17.37;69.11;99059.49;103102;1297;99882;-69
2022/11/01 10:13:40;;;;;;;10.10;3.70;;;;;;;17.35;69.24;99056.80;102628;1296;107712;-68
2022/11/01 10:16:21;;;;;;;9.60;4.10;;;;;;;17.39;69.37;99048.02;103150;1296;99222;-69
2022/11/01 10:19:01;;;;;;;10.50;4.20;;;;;;;17.51;69.83;99052.11;103140;1295;99249;-69
2022/11/01 10:21:41;;;;;;;7.40;3.60;;;;;;;17.65;69.42;99052.34;103154;1297;112560;-69
2022/11/01 10:24:42;;;;;;;13.90;3.90;;;;;;;17.63;68.76;99056.16;103154;1296;99342;-68
2022/11/01 10:27:10;;;;;;;8.90;3.70;;;;;;;17.43;68.38;99057.46;103145;1298;108322;-70
2022/11/01 10:30:02;;;;;;;14.20;4.40;;;;;;;17.23;68.17;99057.16;103136;1291;99345;-68
2022/11/01 10:32:56;;;;;;;10.10;4.20;;;;;;;17.00;68.12;99061.59;103137;1297;99111;-69
2022/11/01 10:35:32;;;;;;;12.00;4.10;;;;;;;16.89;68.46;99057.39;103091;1304;112640;-66
2022/11/01 10:38:26;;;;;;;7.40;3.90;;;;;;;16.88;68.49;99060.33;103165;1297;99249;-67
2022/11/01 10:41:35;;;;;;;10.80;4.10;;;;;;;16.83;68.22;99069.64;103009;1301;108218;-68
2022/11/01 10:44:13;;;;;;;12.90;4.40;;;;;;;16.80;67.81;99066.88;103032;1297;99308;-69
2022/11/01 10:46:47;;;;;;;9.80;4.20;;;;;;;16.74;68.03;99061.38;103107;1304;99236;-69
2022/11/01 10:49:23;;;;;;;16.80;4.70;;;;;;;16.73;68.04;99056.86;103044;1297;112852;-70
2022/11/01 10:51:58;;;;;;;11.90;4.50;;;;;;;16.71;67.84;99056.11;103059;1297;99241;-69
2022/11/01 10:54:29;;;;;;;14.30;4.80;;;;;;;16.74;67.82;99048.11;103093;1297;106336;-71
2022/11/01 10:57:07;;;;;;;12.70;4.30;;;;;;;16.80;67.84;99051.67;103136;1294;99925;-69
2022/11/01 10:59:39;;;;;;;14.20;4.70;;;;;;;16.79;67.66;99045.92;103053;1296;99347;-70
2022/11/01 11:02:28;;;;;;;11.90;4.60;;;;;;;16.78;67.63;99051.69;103095;1302;113314;-70
2022/11/01 11:04:57;;;;;;;13.20;4.40;;;;;;;16.78;67.31;99063.20;102987;1294;99319;-69
2022/11/01 11:07:30;;;;;;;11.70;4.50;;;;;;;16.74;67.27;99064.29;103055;1298;108205;-69
2022/11/01 11:10:01;;;;;;;10.50;4.70;;;;;;;16.75;67.27;99062.49;103060;1290;97435;-69
2022/11/01 11:12:35;;;;;;;10.20;4.20;;;;;;;16.67;66.76;99067.78;103036;1297;99113;-69
2022/11/01 11:15:17;;;;;;;13.50;5.00;;;;;;;16.51;66.98;99070.59;103139;1297;113181;-69
2022/11/01 11:17:50;;;;;;;13.80;5.20;;;;;;;16.44;66.87;99076.79;103096;1298;97755;-70
2022/11/01 11:20:25;;;;;;;13.60;5.10;;;;;;;16.43;66.83;99075.13;103113;1295;107494;-69
2022/11/01 11:22:53;;;;;;;13.50;4.60;;;;;;;16.47;66.78;99082.83;102964;1299;99261;-70
2022/11/01 11:25:31;;;;;;;11.90;4.80;;;;;;;16.51;66.79;99088.65;103099;1297;100305;-69
2022/11/01 11:28:01;;;;;;;12.10;4.70;;;;;;;16.56;66.74;99084.13;103066;1295;113289;-69
2022/11/01 11:30:34;;;;;;;16.80;6.10;;;;;;;16.60;66.78;99086.06;103092;1304;99341;-70
2022/11/01 11:33:03;;;;;;;12.30;5.20;;;;;;;16.60;66.57;99088.20;103092;1297;107248;-74
2022/11/01 11:35:35;;;;;;;17.80;5.70;;;;;;;16.57;66.38;99094.71;103145;1297;97663;-71
2022/11/01 11:38:05;;;;;;;11.90;5.00;;;;;;;16.55;66.44;99096.40;103148;1297;99361;-71
2022/11/01 11:40:37;;;;;;;11.90;5.40;;;;;;;16.54;66.35;99088.80;103063;1298;115276;-70
2022/11/01 11:43:29;;;;;;;12.40;5.40;;;;;;;16.54;66.14;99091.27;103213;1303;99226;-70
2022/11/01 11:46:19;;;;;;;17.10;6.00;;;;;;;16.55;66.24;99086.31;103126;1303;107519;-70
2022/11/01 11:48:55;;;;;;;13.00;5.10;;;;;;;16.52;65.98;99090.33;103128;1297;99260;-70
2022/11/01 11:51:31;;;;;;;14.60;6.20;;;;;;;16.49;65.88;99082.98;103159;1297;97505;-71
2022/11/01 11:54:20;;;;;;;18.00;6.10;;;;;;;16.52;65.92;99081.41;102961;1296;112586;-71